Time;durP1;ratioP1;P1;durP2;ratioP2;P2;SDS_P1;SDS_P2;PMS_P1;PMS_P2;Temp;Humidity;BMP_temperature;BMP_pressure;BME280_temperature;BME280_humidity;BME280_pressure;Samples;Min_cycle;Max_cycle;Signal;HPM_P1;HPM_P2
2023/07/11 00:00:53;;;;;;;6.35;2.80;;;;;;;18.49;nan;101607.56;4968770;28;20422;-58
2023/07/11 00:03:20;;;;;;;10.27;5.32;;;;;;;18.47;nan;101604.13;4968571;28;20089;-58
2023/07/11 00:06:01;;;;;;;6.05;3.65;;;;;;;18.40;nan;101597.44;4968057;28;20043;-58
2023/07/11 00:08:28;;;;;;;7.43;3.65;;;;;;;18.32;nan;101607.78;4968572;28;20059;-58
2023/07/11 00:10:54;;;;;;;10.05;3.88;;;;;;;18.26;nan;101608.19;4969123;28;20042;-60
2023/07/11 00:13:22;;;;;;;7.13;3.28;;;;;;;18.17;nan;101613.16;4964854;28;20059;-58
2023/07/11 00:16:10;;;;;;;11.48;3.70;;;;;;;18.12;nan;101611.75;4968687;28;20057;-59
2023/07/11 00:18:37;;;;;;;7.50;3.80;;;;;;;18.11;nan;101610.91;4966986;28;20050;-59
2023/07/11 00:21:04;;;;;;;8.00;3.03;;;;;;;18.03;nan;101618.56;4968506;28;20113;-59
2023/07/11 00:23:31;;;;;;;4.68;2.80;;;;;;;17.95;nan;101604.81;4967703;28;20089;-59
2023/07/11 00:25:58;;;;;;;9.95;2.60;;;;;;;17.88;nan;101600.78;4969612;28;20068;-59
2023/07/11 00:28:25;;;;;;;5.20;2.38;;;;;;;17.82;nan;101601.16;4966932;28;20058;-59
2023/07/11 00:30:51;;;;;;;6.47;3.13;;;;;;;17.84;nan;101604.59;4961317;28;20058;-59
2023/07/11 00:33:18;;;;;;;5.32;2.70;;;;;;;17.78;nan;101600.47;4965684;28;20058;-59
2023/07/11 00:35:49;;;;;;;6.75;3.08;;;;;;;17.89;nan;101607.88;4969299;28;20055;-59
2023/07/11 00:38:16;;;;;;;5.72;2.97;;;;;;;17.94;nan;101608.44;4969398;28;20051;-59
2023/07/11 00:40:45;;;;;;;5.13;2.85;;;;;;;18.06;nan;101614.81;4967680;28;20054;-59
2023/07/11 00:43:15;;;;;;;6.72;3.63;;;;;;;17.92;nan;101613.03;4968685;28;20066;-59
2023/07/11 00:46:09;;;;;;;5.55;3.42;;;;;;;17.88;nan;101611.50;4969197;28;20058;-59
2023/07/11 00:48:39;;;;;;;5.07;3.22;;;;;;;17.80;nan;101614.59;4969282;28;20426;-59
2023/07/11 00:51:09;;;;;;;9.63;4.13;;;;;;;17.75;nan;101616.72;4967804;28;20050;-59
2023/07/11 00:53:39;;;;;;;11.35;3.17;;;;;;;17.71;nan;101610.69;4968544;28;20648;-59
2023/07/11 00:56:09;;;;;;;4.15;3.00;;;;;;;17.64;nan;101614.72;4969275;28;20427;-59
2023/07/11 00:58:39;;;;;;;9.07;3.92;;;;;;;17.58;nan;101609.75;4981397;28;20059;-59
2023/07/11 01:01:07;;;;;;;7.47;3.60;;;;;;;17.48;nan;101608.59;4965329;28;20491;-59
2023/07/11 01:03:33;;;;;;;8.52;3.28;;;;;;;17.43;nan;101609.72;4967771;28;20047;-59
2023/07/11 01:06:00;;;;;;;4.03;2.83;;;;;;;17.34;nan;101607.59;4966977;28;20039;-59
2023/07/11 01:08:27;;;;;;;5.95;2.90;;;;;;;17.34;nan;101617.44;4966981;28;20062;-59
2023/07/11 01:10:54;;;;;;;5.88;3.28;;;;;;;17.25;nan;101613.53;4973757;28;20057;-59
2023/07/11 01:13:20;;;;;;;5.88;3.28;;;;;;;17.23;nan;101615.44;4981481;28;20124;-59
2023/07/11 01:15:47;;;;;;;6.03;4.10;;;;;;;17.13;nan;101615.13;4964224;28;20050;-59
2023/07/11 01:18:13;;;;;;;7.65;2.85;;;;;;;17.11;nan;101610.81;4966011;28;20059;-59
2023/07/11 01:20:41;;;;;;;6.72;2.80;;;;;;;17.08;nan;101617.19;4968720;28;20618;-59
2023/07/11 01:23:07;;;;;;;4.80;2.75;;;;;;;17.04;nan;101611.19;4968843;28;20062;-59
2023/07/11 01:25:38;;;;;;;8.60;2.95;;;;;;;16.97;nan;101614.31;4968054;28;20415;-59
2023/07/11 01:28:04;;;;;;;6.55;3.55;;;;;;;17.00;nan;101615.00;4966587;28;20510;-59
2023/07/11 01:30:31;;;;;;;6.78;3.42;;;;;;;16.95;nan;101609.06;4969045;28;20055;-59
2023/07/11 01:32:58;;;;;;;6.35;3.75;;;;;;;16.93;nan;101602.94;4967745;28;20503;-59
2023/07/11 01:35:24;;;;;;;4.47;3.00;;;;;;;16.90;nan;101608.44;4970022;28;20061;-59
2023/07/11 01:37:51;;;;;;;5.43;3.40;;;;;;;16.84;nan;101608.81;4972343;28;20042;-59
2023/07/11 01:40:18;;;;;;;10.13;2.95;;;;;;;16.79;nan;101613.56;4972481;28;20175;-59
2023/07/11 01:42:44;;;;;;;9.65;3.88;;;;;;;16.77;nan;101624.31;4970360;28;20062;-59
2023/07/11 01:45:11;;;;;;;6.95;3.10;;;;;;;16.78;nan;101619.84;4964374;28;20059;-59
2023/07/11 01:47:38;;;;;;;8.73;4.20;;;;;;;16.74;nan;101615.59;4972739;28;20466;-59
2023/07/11 01:50:05;;;;;;;8.32;3.38;;;;;;;16.69;nan;101614.06;4971852;28;20051;-59
2023/07/11 01:52:32;;;;;;;6.65;3.38;;;;;;;16.67;nan;101607.97;4972385;28;20097;-59
2023/07/11 01:54:58;;;;;;;5.68;2.83;;;;;;;16.66;nan;101606.25;4970770;28;20146;-59
2023/07/11 01:57:25;;;;;;;7.25;2.92;;;;;;;16.69;nan;101611.41;4972009;28;20047;-59
2023/07/11 01:59:52;;;;;;;6.15;3.78;;;;;;;16.74;nan;101619.16;4972537;28;20051;-59
2023/07/11 02:02:18;;;;;;;5.25;3.28;;;;;;;16.74;nan;101615.59;4960232;28;20054;-59
2023/07/11 02:04:45;;;;;;;8.57;3.75;;;;;;;16.68;nan;101615.00;4968935;28;20418;-59
2023/07/11 02:07:12;;;;;;;5.20;3.33;;;;;;;16.60;nan;101614.59;4972096;28;20152;-59
2023/07/11 02:09:38;;;;;;;7.00;3.80;;;;;;;16.57;nan;101611.25;4968171;28;20063;-59
2023/07/11 02:12:05;;;;;;;6.25;4.18;;;;;;;16.63;nan;101621.59;4964865;28;20057;-59
2023/07/11 02:14:36;;;;;;;7.75;3.60;;;;;;;16.59;nan;101604.88;4971264;28;20058;-59
2023/07/11 02:17:03;;;;;;;6.97;3.42;;;;;;;16.57;nan;101611.25;4971982;28;20092;-59
2023/07/11 02:19:30;;;;;;;6.65;3.05;;;;;;;16.52;nan;101614.19;4972182;28;20058;-59
2023/07/11 02:21:56;;;;;;;6.07;3.60;;;;;;;16.56;nan;101615.75;4970582;28;20050;-59
2023/07/11 02:24:23;;;;;;;13.15;4.05;;;;;;;16.55;nan;101605.16;4969974;28;20751;-59
2023/07/11 02:26:50;;;;;;;5.22;3.42;;;;;;;16.49;nan;101609.00;4965950;28;20053;-59
2023/07/11 02:29:16;;;;;;;6.13;3.17;;;;;;;16.44;nan;101609.28;4969223;28;20050;-59
2023/07/11 02:31:43;;;;;;;7.20;3.42;;;;;;;16.39;nan;101610.50;4972584;28;20142;-59
2023/07/11 02:34:09;;;;;;;9.80;3.45;;;;;;;16.39;nan;101615.81;4971501;28;20058;-59
2023/07/11 02:36:36;;;;;;;5.85;3.38;;;;;;;16.38;nan;101616.75;4972146;28;20051;-58
2023/07/11 02:39:03;;;;;;;10.27;3.95;;;;;;;16.27;nan;101615.56;4969925;28;20065;-58
2023/07/11 02:41:30;;;;;;;5.00;3.55;;;;;;;16.22;nan;101614.97;4971957;28;20061;-59
2023/07/11 02:43:58;;;;;;;7.53;3.92;;;;;;;16.17;nan;101609.03;4959879;28;20055;-59
2023/07/11 02:46:25;;;;;;;6.78;3.90;;;;;;;16.12;nan;101611.94;4971747;28;20125;-58
2023/07/11 02:48:52;;;;;;;5.97;3.72;;;;;;;16.11;nan;101615.56;4971246;28;20182;-59
2023/07/11 02:51:18;;;;;;;6.82;3.92;;;;;;;16.09;nan;101616.59;4973009;28;20063;-60
2023/07/11 02:53:45;;;;;;;6.85;3.45;;;;;;;16.09;nan;101613.94;4971441;28;20063;-59
2023/07/11 02:56:12;;;;;;;9.70;4.25;;;;;;;16.08;nan;101614.88;4954576;28;20063;-60
2023/07/11 02:58:39;;;;;;;5.38;3.50;;;;;;;16.05;nan;101610.59;4971277;28;20062;-59
2023/07/11 03:01:06;;;;;;;5.25;3.70;;;;;;;16.04;nan;101618.66;4972570;28;20057;-59
2023/07/11 03:03:33;;;;;;;6.15;3.63;;;;;;;16.01;nan;101625.00;4983845;28;20102;-60
2023/07/11 03:06:00;;;;;;;7.00;3.78;;;;;;;15.88;nan;101630.16;4973939;28;20112;-59
2023/07/11 03:08:26;;;;;;;5.63;3.80;;;;;;;15.87;nan;101620.44;4974378;28;20054;-59
2023/07/11 03:10:57;;;;;;;7.95;4.18;;;;;;;15.88;nan;101619.47;4970905;28;20070;-59
2023/07/11 03:13:25;;;;;;;7.35;4.20;;;;;;;15.87;nan;101619.56;4971894;28;20066;-59
2023/07/11 03:15:52;;;;;;;7.82;3.95;;;;;;;15.90;nan;101619.41;4969717;28;20062;-59
2023/07/11 03:18:18;;;;;;;5.43;3.60;;;;;;;16.10;nan;101628.97;4971732;28;20051;-59
2023/07/11 03:20:45;;;;;;;14.05;4.30;;;;;;;15.91;nan;101619.31;4972683;28;20054;-59
2023/07/11 03:23:14;;;;;;;6.22;3.72;;;;;;;15.82;nan;101635.81;4971906;28;20073;-59
2023/07/11 03:25:41;;;;;;;7.95;4.22;;;;;;;15.80;nan;101634.19;4971305;28;20054;-59
2023/07/11 03:28:07;;;;;;;6.97;4.07;;;;;;;15.81;nan;101642.09;4961905;28;20369;-59
2023/07/11 03:30:36;;;;;;;9.70;4.45;;;;;;;15.84;nan;101639.25;4954124;28;20085;-59
2023/07/11 03:33:03;;;;;;;9.68;3.85;;;;;;;16.03;nan;101639.13;4970458;28;20089;-59
2023/07/11 03:35:31;;;;;;;7.97;4.07;;;;;;;16.01;nan;101642.81;4971539;28;20061;-59
2023/07/11 03:37:58;;;;;;;7.22;3.47;;;;;;;16.05;nan;101636.38;4971585;28;20689;-59
2023/07/11 03:40:25;;;;;;;7.80;4.28;;;;;;;15.95;nan;101642.22;4976703;28;20112;-59
2023/07/11 03:42:52;;;;;;;7.70;4.03;;;;;;;15.92;nan;101641.50;4973599;28;20055;-59
2023/07/11 03:45:19;;;;;;;7.75;3.63;;;;;;;15.94;nan;101645.81;4970804;28;20611;-59
2023/07/11 03:47:45;;;;;;;7.32;3.75;;;;;;;15.94;nan;101645.81;4977983;28;20385;-59
2023/07/11 03:50:12;;;;;;;10.93;3.95;;;;;;;16.01;nan;101641.00;4976929;28;20059;-59
2023/07/11 03:52:39;;;;;;;7.15;4.47;;;;;;;16.12;nan;101643.09;4968060;28;20065;-59
2023/07/11 03:55:06;;;;;;;7.80;4.25;;;;;;;16.13;nan;101645.69;4970007;28;20054;-59
2023/07/11 03:57:33;;;;;;;24.15;5.30;;;;;;;16.13;nan;101644.81;4970795;28;20503;-59
2023/07/11 04:00:00;;;;;;;13.35;5.22;;;;;;;16.14;nan;101647.38;4969180;28;20595;-59
2023/07/11 04:02:27;;;;;;;10.90;5.18;;;;;;;16.13;nan;101639.47;4975117;28;20077;-59
2023/07/11 04:04:53;;;;;;;8.32;3.88;;;;;;;16.19;nan;101640.97;4971141;28;20058;-59
2023/07/11 04:07:20;;;;;;;8.80;4.57;;;;;;;16.18;nan;101631.22;4970263;28;20051;-59
2023/07/11 04:09:47;;;;;;;9.75;4.07;;;;;;;16.54;nan;101633.63;4968496;28;20061;-59
2023/07/11 04:12:14;;;;;;;6.20;4.07;;;;;;;16.24;nan;101631.75;4970685;28;20051;-59
2023/07/11 04:14:40;;;;;;;7.53;4.25;;;;;;;16.24;nan;101634.41;4969709;28;20059;-59
2023/07/11 04:17:07;;;;;;;12.25;4.40;;;;;;;16.30;nan;101639.41;4969578;28;20075;-59
2023/07/11 04:19:34;;;;;;;8.35;4.55;;;;;;;16.36;nan;101632.84;4970117;28;20479;-59
2023/07/11 04:22:00;;;;;;;9.25;4.63;;;;;;;16.41;nan;101633.47;4970452;28;20443;-59
2023/07/11 04:24:27;;;;;;;8.60;4.97;;;;;;;16.44;nan;101637.75;4970305;28;20051;-59
2023/07/11 04:26:53;;;;;;;7.50;5.00;;;;;;;16.50;nan;101637.44;4968659;28;20069;-59
2023/07/11 04:29:20;;;;;;;9.93;5.05;;;;;;;16.56;nan;101637.09;4969676;28;20055;-59
2023/07/11 04:31:47;;;;;;;6.80;4.65;;;;;;;16.63;nan;101641.13;4969941;28;20058;-59
2023/07/11 04:34:13;;;;;;;10.27;5.05;;;;;;;16.69;nan;101629.25;4969822;28;20069;-59
2023/07/11 04:36:40;;;;;;;8.93;5.32;;;;;;;16.73;nan;101637.94;4968030;28;20058;-59
2023/07/11 04:39:07;;;;;;;9.23;4.85;;;;;;;16.78;nan;101630.50;4968274;28;20155;-59
2023/07/11 04:41:34;;;;;;;9.15;6.15;;;;;;;16.85;nan;101631.91;4970517;28;20055;-59
2023/07/11 04:44:00;;;;;;;8.93;5.50;;;;;;;16.93;nan;101623.44;4970069;28;20061;-59
2023/07/11 04:46:27;;;;;;;10.85;5.50;;;;;;;16.99;nan;101626.63;4967143;28;20058;-59
2023/07/11 04:48:54;;;;;;;6.57;5.18;;;;;;;17.08;nan;101619.00;4981733;28;20051;-59
2023/07/11 04:51:20;;;;;;;11.80;5.90;;;;;;;17.43;nan;101628.44;4969834;28;20054;-59
2023/07/11 04:53:47;;;;;;;9.30;5.45;;;;;;;17.58;nan;101617.78;4968056;28;20466;-59
2023/07/11 04:56:14;;;;;;;16.10;6.32;;;;;;;17.61;nan;101614.91;4969440;28;20058;-60
2023/07/11 04:58:40;;;;;;;6.80;5.20;;;;;;;17.64;nan;101609.38;4969799;28;20047;-59
2023/07/11 05:01:08;;;;;;;16.08;7.50;;;;;;;17.56;nan;101606.31;4969899;28;20059;-59
2023/07/11 05:03:36;;;;;;;12.48;6.10;;;;;;;17.74;nan;101610.53;4967591;28;20050;-60
2023/07/11 05:06:05;;;;;;;13.20;6.40;;;;;;;17.59;nan;101616.81;4969738;28;20062;-59
2023/07/11 05:08:32;;;;;;;9.68;6.25;;;;;;;17.66;nan;101620.81;4968882;28;20058;-60
2023/07/11 05:11:04;;;;;;;10.73;5.65;;;;;;;17.72;nan;101612.44;4970106;28;20069;-59
2023/07/11 05:13:32;;;;;;;7.30;5.20;;;;;;;17.77;nan;101614.81;4967993;28;20156;-60
2023/07/11 05:16:05;;;;;;;11.70;6.18;;;;;;;17.86;nan;101608.03;4969479;28;20082;-60
2023/07/11 05:18:33;;;;;;;13.00;6.38;;;;;;;17.93;nan;101601.38;4964104;28;20054;-59
2023/07/11 05:21:00;;;;;;;12.43;6.07;;;;;;;18.02;nan;101603.47;4968408;28;20138;-60
2023/07/11 05:23:29;;;;;;;10.80;5.88;;;;;;;18.11;nan;101612.72;4970614;28;20051;-59
2023/07/11 05:25:56;;;;;;;9.90;5.88;;;;;;;18.19;nan;101609.56;4969997;28;20059;-60
2023/07/11 05:28:27;;;;;;;12.15;5.97;;;;;;;18.27;nan;101607.25;4969664;28;20047;-59
2023/07/11 05:30:55;;;;;;;11.38;5.60;;;;;;;18.34;nan;101600.50;4968219;28;20606;-60
2023/07/11 05:33:23;;;;;;;10.48;5.65;;;;;;;18.45;nan;101591.81;4969450;28;20054;-60
2023/07/11 05:38:35;;;;;;;11.57;6.03;;;;;;;18.59;nan;101590.91;4969381;28;20054;-59
2023/07/11 05:41:02;;;;;;;10.50;6.68;;;;;;;18.65;nan;101598.50;4968492;28;20051;-60
2023/07/11 05:43:28;;;;;;;9.30;6.30;;;;;;;18.73;nan;101598.84;4969641;28;20518;-59
2023/07/11 05:45:55;;;;;;;11.70;6.43;;;;;;;18.76;nan;101585.25;4968897;28;20065;-59
2023/07/11 05:48:22;;;;;;;14.35;6.43;;;;;;;18.87;nan;101585.44;4967827;28;20069;-59
2023/07/11 05:51:05;;;;;;;11.98;6.22;;;;;;;19.00;nan;101584.63;4969401;28;20070;-60
2023/07/11 05:53:33;;;;;;;10.45;6.50;;;;;;;19.07;nan;101581.38;4959551;28;20081;-59
2023/07/11 05:55:59;;;;;;;18.70;6.97;;;;;;;19.22;nan;101579.50;4950054;28;20062;-59
2023/07/11 05:58:28;;;;;;;8.57;5.97;;;;;;;19.36;nan;101575.84;4961299;28;20047;-59
2023/07/11 06:00:55;;;;;;;16.92;6.57;;;;;;;19.44;nan;101576.16;4970076;28;20050;-59
2023/07/11 06:03:23;;;;;;;11.73;6.85;;;;;;;19.53;nan;101581.84;4969353;28;20059;-59
2023/07/11 06:05:51;;;;;;;10.15;5.32;;;;;;;19.62;nan;101576.69;4968909;28;20057;-60
2023/07/11 06:08:18;;;;;;;7.43;5.38;;;;;;;19.71;nan;101564.44;4967917;28;20051;-59
2023/07/11 06:10:45;;;;;;;9.05;6.15;;;;;;;19.80;nan;101565.66;4969420;28;20538;-60
2023/07/11 06:13:13;;;;;;;8.23;5.47;;;;;;;19.87;nan;101574.13;4968923;28;20062;-60
2023/07/11 06:15:41;;;;;;;12.77;4.97;;;;;;;20.05;nan;101571.94;4967765;28;20605;-60
2023/07/11 06:18:07;;;;;;;6.68;4.75;;;;;;;20.17;nan;101555.78;4972431;28;20053;-60
2023/07/11 06:20:34;;;;;;;7.38;4.18;;;;;;;20.34;nan;101562.59;4988778;28;20113;-60
2023/07/11 06:23:01;;;;;;;6.13;4.15;;;;;;;20.36;nan;101557.94;4973207;28;20062;-60
2023/07/11 06:25:27;;;;;;;11.57;4.50;;;;;;;20.40;nan;101555.91;4972721;28;20062;-60
2023/07/11 06:27:54;;;;;;;5.80;3.70;;;;;;;20.47;nan;101559.00;4973282;28;20043;-60
2023/07/11 06:30:20;;;;;;;8.02;4.45;;;;;;;20.61;nan;101558.78;4973088;28;20121;-60
2023/07/11 06:32:48;;;;;;;7.22;4.15;;;;;;;20.70;nan;101557.28;4967303;28;20110;-61
2023/07/11 06:35:15;;;;;;;8.30;4.15;;;;;;;20.73;nan;101551.69;4968541;28;20057;-61
2023/07/11 06:37:41;;;;;;;14.13;4.60;;;;;;;20.78;nan;101557.56;4991668;28;20116;-61
2023/07/11 06:40:08;;;;;;;6.82;3.78;;;;;;;20.88;nan;101555.03;4991325;28;20081;-61
2023/07/11 06:42:35;;;;;;;7.78;4.03;;;;;;;21.03;nan;101551.16;4977784;28;20058;-60
2023/07/11 06:45:03;;;;;;;11.02;4.88;;;;;;;21.02;nan;101554.84;4971189;28;20066;-60
2023/07/11 06:47:29;;;;;;;7.57;4.70;;;;;;;21.11;nan;101547.03;4970990;28;20062;-60
2023/07/11 06:49:56;;;;;;;9.80;4.57;;;;;;;21.22;nan;101541.69;4954007;28;20055;-61
2023/07/11 06:52:23;;;;;;;7.43;3.88;;;;;;;21.32;nan;101542.66;4962973;28;20124;-60
2023/07/11 06:54:49;;;;;;;6.80;4.28;;;;;;;21.51;nan;101538.53;4972679;28;20065;-60
2023/07/11 06:57:18;;;;;;;8.75;3.83;;;;;;;21.64;nan;101541.94;4972618;28;20714;-60
2023/07/11 06:59:47;;;;;;;7.97;3.90;;;;;;;21.75;nan;101528.50;4973096;28;20054;-60
2023/07/11 07:02:13;;;;;;;6.95;4.78;;;;;;;21.85;nan;101533.13;4963838;28;20051;-60
2023/07/11 07:04:40;;;;;;;7.30;4.32;;;;;;;21.95;nan;101531.41;4972113;28;20436;-60
2023/07/11 07:07:07;;;;;;;6.00;3.72;;;;;;;22.04;nan;101529.81;4971713;28;20055;-60
2023/07/11 07:09:33;;;;;;;6.65;4.50;;;;;;;22.08;nan;101524.03;4969885;28;20057;-60
2023/07/11 07:12:00;;;;;;;12.20;4.53;;;;;;;22.27;nan;101519.81;4969845;28;20073;-60
2023/07/11 07:14:27;;;;;;;6.43;3.72;;;;;;;22.26;nan;101515.41;4970557;28;20465;-60
2023/07/11 07:16:53;;;;;;;6.60;4.00;;;;;;;22.31;nan;101518.59;4972406;28;20113;-60
2023/07/11 07:19:20;;;;;;;5.60;3.33;;;;;;;22.36;nan;101511.00;4970074;28;20517;-60
2023/07/11 07:21:46;;;;;;;6.00;2.92;;;;;;;22.44;nan;101508.50;4966605;28;20056;-60
2023/07/11 07:24:13;;;;;;;7.38;3.20;;;;;;;22.57;nan;101512.88;4966706;28;20059;-60
2023/07/11 07:26:41;;;;;;;5.78;2.88;;;;;;;22.45;nan;101506.69;4971480;28;20106;-60
2023/07/11 07:29:08;;;;;;;6.80;2.08;;;;;;;22.65;nan;101505.00;4970988;28;20059;-60
2023/07/11 07:31:34;;;;;;;5.63;2.53;;;;;;;22.85;nan;101504.16;4971485;28;20069;-60
2023/07/11 07:34:01;;;;;;;5.32;2.40;;;;;;;22.92;nan;101502.63;4971032;28;20054;-61
2023/07/11 07:36:28;;;;;;;6.45;2.80;;;;;;;22.88;nan;101495.78;4967902;28;20058;-60
2023/07/11 07:38:54;;;;;;;6.18;2.60;;;;;;;23.05;nan;101496.19;4972689;28;20057;-60
2023/07/11 07:41:21;;;;;;;5.25;2.40;;;;;;;23.17;nan;101495.13;4970117;28;20059;-60
2023/07/11 07:43:48;;;;;;;5.80;3.30;;;;;;;23.17;nan;101495.13;4959307;28;20073;-61
2023/07/11 07:46:16;;;;;;;6.25;2.58;;;;;;;23.26;nan;101482.66;4966627;28;20058;-60
2023/07/11 07:48:43;;;;;;;4.50;2.47;;;;;;;23.38;nan;101491.53;4970448;28;20050;-61
2023/07/11 07:51:13;;;;;;;6.70;2.75;;;;;;;23.41;nan;101477.78;4970621;28;20096;-60
2023/07/11 07:53:40;;;;;;;7.47;3.00;;;;;;;23.58;nan;101481.66;4971034;28;20078;-60
2023/07/11 07:56:11;;;;;;;5.43;2.83;;;;;;;23.44;nan;101474.78;4970639;28;20057;-60
2023/07/11 07:58:39;;;;;;;6.72;2.60;;;;;;;23.54;nan;101481.09;4971071;28;20058;-60
2023/07/11 08:01:11;;;;;;;8.10;3.20;;;;;;;23.59;nan;101473.44;4970409;28;20051;-59
2023/07/11 08:03:39;;;;;;;8.27;3.65;;;;;;;23.72;nan;101483.13;4970779;28;20066;-59
2023/07/11 08:06:07;;;;;;;6.30;2.55;;;;;;;23.77;nan;101475.47;4970075;28;20085;-60
2023/07/11 08:08:43;;;;;;;5.82;2.38;;;;;;;23.86;nan;101469.25;4969292;28;20463;-60
2023/07/11 08:11:10;;;;;;;8.45;2.45;;;;;;;23.88;nan;101471.81;4970036;28;20093;-60
2023/07/11 08:13:37;;;;;;;5.72;1.73;;;;;;;23.99;nan;101469.84;4969857;28;20047;-60
2023/07/11 08:16:23;;;;;;;5.20;2.90;;;;;;;24.10;nan;101468.03;4968086;28;20059;-60
2023/07/11 08:18:57;;;;;;;4.93;2.28;;;;;;;24.36;nan;101455.66;4970110;28;20042;-60
2023/07/11 08:21:25;;;;;;;9.40;2.42;;;;;;;24.44;nan;101463.03;4969937;28;20070;-60
2023/07/11 08:23:51;;;;;;;10.30;3.38;;;;;;;24.64;nan;101463.88;4969511;28;20058;-60
2023/07/11 08:26:19;;;;;;;13.30;2.40;;;;;;;24.50;nan;101450.78;4969312;28;20055;-60
2023/07/11 08:28:46;;;;;;;7.90;2.97;;;;;;;24.49;nan;101455.34;4953259;28;20058;-61
2023/07/11 08:31:12;;;;;;;3.33;2.10;;;;;;;24.46;nan;101449.38;4969576;28;20172;-60
2023/07/11 08:33:39;;;;;;;7.18;2.22;;;;;;;24.50;nan;101451.63;4969927;28;20058;-61
2023/07/11 08:36:06;;;;;;;3.17;1.90;;;;;;;24.45;nan;101447.66;4969380;28;20054;-60
2023/07/11 08:38:33;;;;;;;5.80;1.52;;;;;;;24.55;nan;101443.09;4953698;28;20047;-60
2023/07/11 08:41:20;;;;;;;3.58;2.00;;;;;;;24.74;nan;101442.25;4969289;28;20051;-59
2023/07/11 08:43:49;;;;;;;5.75;2.10;;;;;;;24.85;nan;101443.94;4961055;28;20055;-59
2023/07/11 08:46:20;;;;;;;3.85;1.67;;;;;;;24.93;nan;101441.34;4982169;28;20567;-60
2023/07/11 08:48:59;;;;;;;8.80;2.22;;;;;;;25.06;nan;101424.78;4969772;28;20050;-60
2023/07/11 08:51:37;;;;;;;5.53;2.22;;;;;;;25.26;nan;101430.97;4968136;28;20071;-60
2023/07/11 08:54:34;;;;;;;4.35;1.67;;;;;;;25.38;nan;101427.06;4968423;28;20054;-60
2023/07/11 08:57:01;;;;;;;6.57;2.35;;;;;;;25.31;nan;101417.88;4955612;28;20055;-60
2023/07/11 08:59:50;;;;;;;7.78;2.80;;;;;;;25.30;nan;101420.72;4969441;28;20055;-60
2023/07/11 09:02:28;;;;;;;6.68;1.77;;;;;;;25.14;nan;101421.34;4969295;28;20066;-60
2023/07/11 09:04:55;;;;;;;3.33;1.73;;;;;;;25.33;nan;101421.28;4954573;28;20051;-59
2023/07/11 09:07:22;;;;;;;8.23;2.55;;;;;;;25.66;nan;101405.41;4969182;28;20186;-59
2023/07/11 09:09:49;;;;;;;4.32;2.10;;;;;;;25.50;nan;101397.09;4969103;28;20058;-59
2023/07/11 09:12:31;;;;;;;5.93;2.58;;;;;;;25.20;nan;101404.50;4969128;28;20051;-59
2023/07/11 09:15:17;;;;;;;7.85;2.95;;;;;;;25.13;nan;101403.41;4954591;28;20066;-59
2023/07/11 09:17:47;;;;;;;5.07;2.17;;;;;;;25.64;nan;101391.19;4965536;28;20058;-63
2023/07/11 09:20:40;;;;;;;;;;;;;;;25.99;nan;101390.38;4954653;28;20059;-59
2023/07/11 09:23:45;;;;;;;6.18;1.70;;;;;;;26.00;nan;101393.91;4962830;28;19922;-60
2023/07/11 09:26:21;;;;;;;4.05;1.98;;;;;;;26.19;nan;101388.31;4939859;28;20047;-60
2023/07/11 09:28:48;;;;;;;9.60;1.90;;;;;;;26.38;nan;101389.13;4961880;28;20043;-59
2023/07/11 09:31:19;;;;;;;6.45;1.75;;;;;;;26.24;nan;101381.56;4963228;28;20055;-60
2023/07/11 09:33:52;;;;;;;5.03;1.88;;;;;;;26.32;nan;101384.38;4962054;28;20066;-60
2023/07/11 09:36:26;;;;;;;4.82;1.83;;;;;;;26.40;nan;101380.84;4968377;28;20059;-59
2023/07/11 09:39:22;;;;;;;8.30;2.35;;;;;;;26.44;nan;101377.66;4954214;28;20487;-59
2023/07/11 09:41:58;;;;;;;6.82;2.00;;;;;;;26.38;nan;101389.13;4961802;28;20058;-60
2023/07/11 09:44:25;;;;;;;3.17;1.80;;;;;;;26.11;nan;101372.00;4968569;28;20058;-60
2023/07/11 09:46:51;;;;;;;12.93;2.47;;;;;;;26.54;nan;101372.97;4967068;28;20652;-60
2023/07/11 09:49:23;;;;;;;6.15;1.77;;;;;;;26.50;nan;101365.34;4967117;28;20063;-60
2023/07/11 09:51:54;;;;;;;6.13;2.35;;;;;;;26.79;nan;101359.59;4972408;28;20058;-60
2023/07/11 09:54:43;;;;;;;8.00;2.22;;;;;;;26.95;nan;101357.97;4972322;28;20059;-60
2023/07/11 09:57:21;;;;;;;6.82;2.15;;;;;;;26.68;nan;101347.19;4972234;28;20051;-60
2023/07/11 09:59:55;;;;;;;5.30;2.22;;;;;;;26.33;nan;101350.81;4972861;28;20055;-59
2023/07/11 10:02:28;;;;;;;7.00;1.75;;;;;;;26.50;nan;101349.94;4972365;28;20051;-60
2023/07/11 10:04:57;;;;;;;7.30;2.08;;;;;;;26.76;nan;101332.81;4970587;28;20054;-60
2023/07/11 10:07:29;;;;;;;4.63;1.95;;;;;;;26.93;nan;101355.44;4971985;28;20688;-60
2023/07/11 10:10:02;;;;;;;5.65;2.08;;;;;;;27.17;nan;101334.81;4972610;28;20062;-60
2023/07/11 10:12:30;;;;;;;4.32;2.10;;;;;;;27.47;nan;101330.69;4971190;28;20055;-60
2023/07/11 10:15:00;;;;;;;5.00;1.80;;;;;;;27.18;nan;101329.22;4970844;28;20054;-60
2023/07/11 10:17:35;;;;;;;9.40;2.15;;;;;;;27.20;nan;101319.09;4971367;28;20047;-61
2023/07/11 10:20:11;;;;;;;6.88;2.00;;;;;;;27.31;nan;101319.81;4969779;28;20054;-60
2023/07/11 10:22:48;;;;;;;4.43;1.92;;;;;;;27.12;nan;101316.34;4969072;28;20438;-60
2023/07/11 10:25:20;;;;;;;4.38;2.17;;;;;;;27.28;nan;101310.97;4971856;28;20062;-60
2023/07/11 10:28:13;;;;;;;4.18;2.17;;;;;;;26.96;nan;101305.41;4958217;28;20089;-59
2023/07/11 10:30:41;;;;;;;4.90;1.98;;;;;;;26.68;nan;101303.81;4970077;28;20559;-59
2023/07/11 10:33:08;;;;;;;5.22;2.55;;;;;;;27.01;nan;101297.66;4971893;28;20051;-59
2023/07/11 10:35:55;;;;;;;3.88;2.10;;;;;;;27.05;nan;101299.03;4971325;28;20070;-60
2023/07/11 10:38:30;;;;;;;6.65;2.47;;;;;;;27.17;nan;101297.72;4972063;28;20065;-60
2023/07/11 10:41:00;;;;;;;3.47;2.10;;;;;;;27.21;nan;101296.34;4970622;28;20055;-60
2023/07/11 10:43:35;;;;;;;4.72;1.98;;;;;;;27.43;nan;101302.19;4970388;28;20054;-60
2023/07/11 10:46:13;;;;;;;6.43;1.85;;;;;;;27.61;nan;101292.03;4968328;28;20082;-60
2023/07/11 10:48:47;;;;;;;3.70;2.03;;;;;;;27.79;nan;101283.72;4969879;28;20057;-58
2023/07/11 10:51:20;;;;;;;8.25;3.15;;;;;;;28.20;nan;101288.28;4971746;28;20055;-58
2023/07/11 10:54:03;;;;;;;7.65;2.35;;;;;;;28.20;nan;101288.28;4969718;28;20058;-59
2023/07/11 10:56:36;;;;;;;6.57;2.20;;;;;;;29.24;nan;101285.50;4970711;28;20059;-59
2023/07/11 10:59:03;;;;;;;8.23;1.95;;;;;;;30.07;nan;101272.94;4971204;28;20475;-59
2023/07/11 11:01:53;;;;;;;4.00;1.67;;;;;;;30.44;nan;101271.19;4971063;28;20054;-59
2023/07/11 11:04:36;;;;;;;;;;;;;;;30.30;nan;101272.00;4971863;28;20055;-59
2023/07/11 11:07:10;;;;;;;8.50;2.55;;;;;;;30.84;nan;101268.13;4970504;28;19933;-59
2023/07/11 11:10:08;;;;;;;5.95;2.15;;;;;;;31.62;nan;101261.03;4956143;28;20054;-59
2023/07/11 11:12:46;;;;;;;4.10;1.95;;;;;;;32.22;nan;101260.63;4969763;28;20077;-59
2023/07/11 11:15:13;;;;;;;6.75;2.05;;;;;;;32.47;nan;101251.94;4956977;28;20062;-59
2023/07/11 11:17:47;;;;;;;9.00;2.58;;;;;;;32.79;nan;101252.31;4970652;28;20051;-60
2023/07/11 11:20:27;;;;;;;7.88;2.83;;;;;;;32.50;nan;101254.25;4970373;28;20102;-59
2023/07/11 11:23:25;;;;;;;5.43;1.83;;;;;;;34.09;nan;101247.41;4966171;28;20046;-64
2023/07/11 11:26:05;;;;;;;5.78;1.80;;;;;;;34.54;nan;101239.28;4970192;28;20066;-59
2023/07/11 11:28:46;;;;;;;3.97;1.77;;;;;;;34.83;nan;101237.03;4970673;28;20092;-59
2023/07/11 11:31:25;;;;;;;3.92;2.10;;;;;;;34.42;nan;101234.69;4970384;28;20484;-60
2023/07/11 11:33:58;;;;;;;2.30;1.40;;;;;;;34.85;nan;101229.41;4971092;28;20059;-60
2023/07/11 11:36:46;;;;;;;4.60;1.67;;;;;;;35.53;nan;101219.69;4970754;28;20061;-60
2023/07/11 11:39:20;;;;;;;6.80;1.63;;;;;;;35.82;nan;101225.59;4970258;28;20062;-60
2023/07/11 11:41:54;;;;;;;4.95;2.03;;;;;;;34.72;nan;101221.22;4970222;28;20727;-60
2023/07/11 11:44:26;;;;;;;5.18;1.73;;;;;;;34.52;nan;101211.19;4962321;28;20053;-60
2023/07/11 11:46:56;;;;;;;2.55;1.42;;;;;;;34.64;nan;101205.03;4965981;28;20470;-60
2023/07/11 11:49:26;;;;;;;5.53;1.67;;;;;;;36.32;nan;101222.72;4968919;28;20050;-60
2023/07/11 11:51:56;;;;;;;5.47;1.52;;;;;;;35.02;nan;101206.97;4963885;28;20084;-60
2023/07/11 11:54:25;;;;;;;2.90;1.20;;;;;;;36.78;nan;101203.94;4970164;28;20055;-60
2023/07/11 11:56:55;;;;;;;5.30;1.77;;;;;;;35.73;nan;101202.16;4968518;28;20054;-60